Elizabeth City, North Carolina
Current Conditions -  °F | °C
As of 2:54 AM on Thursday 27 Nov 2014 (Local Time) from KECG Reporting Station
Clear Clear  
Wind Chill: 33°   Ceiling: Unl
Heat Index: 37°   Visibility: 10mi
Dew Point: 33°   Wind: 5mph
Humidity: 86%   Direction: 210°SSW
Pressure: 30.07"   Gusts: NA
Location:  36.3°N, 76.22°W
Report Text: KECG 270754Z AUTO 21004KT 10SM CLR 03/01 A3007 RMK AO2 SLP181 T00280006 TSNO $
Loading
Personal Weather Stations






























Interactive Weather Map New forecast layout! Learn more

10-Day Weather Forecast

Advertisements
Track Severe Weather on mobile